sensor_id;sensor_type;location;lat;lon;timestamp;P1;durP1;ratioP1;P2;durP2;ratioP2
33716;SDS011;20046;50.746;7.072;2022-10-16T00:00:41;10.20;;;6.78;;
33716;SDS011;20046;50.746;7.072;2022-10-16T00:03:08;6.22;;;2.63;;
33716;SDS011;20046;50.746;7.072;2022-10-16T00:05:38;2.38;;;1.80;;
33716;SDS011;20046;50.746;7.072;2022-10-16T00:08:05;7.60;;;1.45;;
33716;SDS011;20046;50.746;7.072;2022-10-16T00:10:31;4.03;;;1.40;;
33716;SDS011;20046;50.746;7.072;2022-10-16T00:12:57;3.08;;;1.48;;
33716;SDS011;20046;50.746;7.072;2022-10-16T00:15:22;2.45;;;1.50;;
33716;SDS011;20046;50.746;7.072;2022-10-16T00:17:48;3.80;;;1.20;;
33716;SDS011;20046;50.746;7.072;2022-10-16T00:20:14;2.25;;;1.27;;
33716;SDS011;20046;50.746;7.072;2022-10-16T00:22:39;8.23;;;1.40;;
33716;SDS011;20046;50.746;7.072;2022-10-16T00:25:05;1.77;;;1.20;;
33716;SDS011;20046;50.746;7.072;2022-10-16T00:27:30;3.67;;;1.63;;
33716;SDS011;20046;50.746;7.072;2022-10-16T00:29:56;2.65;;;1.33;;
33716;SDS011;20046;50.746;7.072;2022-10-16T00:32:22;3.35;;;1.73;;
33716;SDS011;20046;50.746;7.072;2022-10-16T00:34:47;2.75;;;1.30;;
33716;SDS011;20046;50.746;7.072;2022-10-16T00:37:13;5.07;;;1.67;;
33716;SDS011;20046;50.746;7.072;2022-10-16T00:39:38;5.45;;;1.35;;
33716;SDS011;20046;50.746;7.072;2022-10-16T00:42:04;3.30;;;1.38;;
33716;SDS011;20046;50.746;7.072;2022-10-16T00:45:12;2.00;;;1.13;;
33716;SDS011;20046;50.746;7.072;2022-10-16T00:49:56;6.15;;;1.90;;
33716;SDS011;20046;50.746;7.072;2022-10-16T00:52:26;3.87;;;1.57;;
33716;SDS011;20046;50.746;7.072;2022-10-16T00:54:52;5.07;;;1.63;;
33716;SDS011;20046;50.746;7.072;2022-10-16T00:57:19;6.00;;;1.85;;
33716;SDS011;20046;50.746;7.072;2022-10-16T00:59:45;3.05;;;2.30;;
33716;SDS011;20046;50.746;7.072;2022-10-16T01:02:14;5.22;;;2.10;;
33716;SDS011;20046;50.746;7.072;2022-10-16T01:04:42;5.22;;;1.98;;
33716;SDS011;20046;50.746;7.072;2022-10-16T01:07:27;3.25;;;1.85;;
33716;SDS011;20046;50.746;7.072;2022-10-16T01:13:01;1.98;;;1.50;;
33716;SDS011;20046;50.746;7.072;2022-10-16T01:21:04;9.50;;;2.10;;
33716;SDS011;20046;50.746;7.072;2022-10-16T01:29:01;4.18;;;1.80;;
33716;SDS011;20046;50.746;7.072;2022-10-16T01:31:49;3.60;;;1.83;;
33716;SDS011;20046;50.746;7.072;2022-10-16T01:34:22;12.75;;;2.40;;
33716;SDS011;20046;50.746;7.072;2022-10-16T01:37:14;4.85;;;2.20;;
33716;SDS011;20046;50.746;7.072;2022-10-16T01:39:45;3.50;;;2.00;;
33716;SDS011;20046;50.746;7.072;2022-10-16T01:42:21;4.88;;;1.77;;
33716;SDS011;20046;50.746;7.072;2022-10-16T01:44:53;4.78;;;2.20;;
33716;SDS011;20046;50.746;7.072;2022-10-16T01:47:21;2.95;;;1.52;;
33716;SDS011;20046;50.746;7.072;2022-10-16T01:49:50;1.70;;;1.35;;
33716;SDS011;20046;50.746;7.072;2022-10-16T01:52:17;2.08;;;1.55;;
33716;SDS011;20046;50.746;7.072;2022-10-16T01:54:47;8.48;;;1.77;;
33716;SDS011;20046;50.746;7.072;2022-10-16T01:57:15;1.55;;;1.30;;
33716;SDS011;20046;50.746;7.072;2022-10-16T01:59:44;3.97;;;1.98;;
33716;SDS011;20046;50.746;7.072;2022-10-16T02:02:15;2.17;;;1.70;;
33716;SDS011;20046;50.746;7.072;2022-10-16T02:04:43;5.05;;;2.65;;
33716;SDS011;20046;50.746;7.072;2022-10-16T02:07:12;3.47;;;1.40;;
33716;SDS011;20046;50.746;7.072;2022-10-16T02:09:39;6.07;;;2.25;;
33716;SDS011;20046;50.746;7.072;2022-10-16T02:12:25;2.63;;;1.33;;
33716;SDS011;20046;50.746;7.072;2022-10-16T02:14:56;2.38;;;1.30;;
33716;SDS011;20046;50.746;7.072;2022-10-16T02:17:24;2.60;;;1.20;;
33716;SDS011;20046;50.746;7.072;2022-10-16T02:19:50;6.18;;;1.50;;
33716;SDS011;20046;50.746;7.072;2022-10-16T02:22:26;1.98;;;1.25;;
33716;SDS011;20046;50.746;7.072;2022-10-16T02:24:58;3.83;;;1.25;;
33716;SDS011;20046;50.746;7.072;2022-10-16T02:30:16;1.90;;;1.20;;
33716;SDS011;20046;50.746;7.072;2022-10-16T02:32:48;5.82;;;1.20;;
33716;SDS011;20046;50.746;7.072;2022-10-16T02:35:15;3.17;;;1.30;;
33716;SDS011;20046;50.746;7.072;2022-10-16T02:37:43;1.27;;;1.15;;
33716;SDS011;20046;50.746;7.072;2022-10-16T02:40:11;3.63;;;1.45;;
33716;SDS011;20046;50.746;7.072;2022-10-16T02:42:39;4.32;;;2.03;;
33716;SDS011;20046;50.746;7.072;2022-10-16T02:45:06;8.43;;;1.33;;
33716;SDS011;20046;50.746;7.072;2022-10-16T02:47:33;3.33;;;1.48;;
33716;SDS011;20046;50.746;7.072;2022-10-16T02:49:58;3.30;;;1.20;;
33716;SDS011;20046;50.746;7.072;2022-10-16T02:52:24;11.25;;;1.52;;
33716;SDS011;20046;50.746;7.072;2022-10-16T02:54:50;2.72;;;1.20;;
33716;SDS011;20046;50.746;7.072;2022-10-16T02:57:15;6.93;;;1.52;;
33716;SDS011;20046;50.746;7.072;2022-10-16T02:59:41;1.17;;;1.08;;
33716;SDS011;20046;50.746;7.072;2022-10-16T03:02:07;4.82;;;1.40;;
33716;SDS011;20046;50.746;7.072;2022-10-16T03:04:32;2.35;;;1.10;;
33716;SDS011;20046;50.746;7.072;2022-10-16T03:06:58;1.33;;;1.17;;
33716;SDS011;20046;50.746;7.072;2022-10-16T03:09:23;3.28;;;1.38;;
33716;SDS011;20046;50.746;7.072;2022-10-16T03:11:49;2.05;;;1.30;;
33716;SDS011;20046;50.746;7.072;2022-10-16T03:14:14;5.03;;;1.10;;
33716;SDS011;20046;50.746;7.072;2022-10-16T03:16:40;1.88;;;1.10;;
33716;SDS011;20046;50.746;7.072;2022-10-16T03:19:06;4.22;;;1.20;;
33716;SDS011;20046;50.746;7.072;2022-10-16T03:21:31;4.30;;;1.08;;
33716;SDS011;20046;50.746;7.072;2022-10-16T03:23:57;1.83;;;1.10;;
33716;SDS011;20046;50.746;7.072;2022-10-16T03:26:22;3.42;;;1.30;;
33716;SDS011;20046;50.746;7.072;2022-10-16T03:28:48;2.30;;;0.90;;
33716;SDS011;20046;50.746;7.072;2022-10-16T03:31:13;4.05;;;1.13;;
33716;SDS011;20046;50.746;7.072;2022-10-16T03:33:39;6.10;;;0.90;;
33716;SDS011;20046;50.746;7.072;2022-10-16T03:36:04;4.50;;;1.10;;
33716;SDS011;20046;50.746;7.072;2022-10-16T03:38:30;11.23;;;1.30;;
33716;SDS011;20046;50.746;7.072;2022-10-16T03:40:56;3.35;;;0.90;;
33716;SDS011;20046;50.746;7.072;2022-10-16T03:43:21;1.55;;;1.00;;
33716;SDS011;20046;50.746;7.072;2022-10-16T03:45:47;3.83;;;0.98;;
33716;SDS011;20046;50.746;7.072;2022-10-16T03:48:12;2.47;;;1.00;;
33716;SDS011;20046;50.746;7.072;2022-10-16T03:50:38;2.15;;;0.93;;
33716;SDS011;20046;50.746;7.072;2022-10-16T03:53:03;3.40;;;0.95;;
33716;SDS011;20046;50.746;7.072;2022-10-16T03:55:29;6.10;;;1.48;;
33716;SDS011;20046;50.746;7.072;2022-10-16T03:57:55;2.20;;;0.85;;
33716;SDS011;20046;50.746;7.072;2022-10-16T04:00:20;4.70;;;1.13;;
33716;SDS011;20046;50.746;7.072;2022-10-16T04:02:46;4.05;;;0.90;;
33716;SDS011;20046;50.746;7.072;2022-10-16T04:05:11;1.27;;;0.90;;
33716;SDS011;20046;50.746;7.072;2022-10-16T04:07:37;2.92;;;1.05;;
33716;SDS011;20046;50.746;7.072;2022-10-16T04:10:04;2.85;;;1.40;;
33716;SDS011;20046;50.746;7.072;2022-10-16T04:12:30;3.83;;;1.15;;
33716;SDS011;20046;50.746;7.072;2022-10-16T04:14:56;1.25;;;1.10;;
33716;SDS011;20046;50.746;7.072;2022-10-16T04:17:22;6.07;;;1.80;;
33716;SDS011;20046;50.746;7.072;2022-10-16T04:19:48;7.65;;;1.52;;
33716;SDS011;20046;50.746;7.072;2022-10-16T04:22:13;4.43;;;1.13;;
33716;SDS011;20046;50.746;7.072;2022-10-16T04:24:39;6.82;;;1.10;;
33716;SDS011;20046;50.746;7.072;2022-10-16T04:27:05;2.70;;;1.10;;
33716;SDS011;20046;50.746;7.072;2022-10-16T04:29:30;4.38;;;1.40;;
33716;SDS011;20046;50.746;7.072;2022-10-16T04:31:56;3.05;;;1.25;;
33716;SDS011;20046;50.746;7.072;2022-10-16T04:34:21;2.28;;;1.20;;
33716;SDS011;20046;50.746;7.072;2022-10-16T04:36:47;2.85;;;1.08;;
33716;SDS011;20046;50.746;7.072;2022-10-16T04:39:16;1.27;;;1.00;;
33716;SDS011;20046;50.746;7.072;2022-10-16T04:41:42;4.03;;;1.10;;
33716;SDS011;20046;50.746;7.072;2022-10-16T04:44:07;1.20;;;1.10;;
33716;SDS011;20046;50.746;7.072;2022-10-16T04:46:33;3.47;;;1.05;;
33716;SDS011;20046;50.746;7.072;2022-10-16T04:48:59;6.47;;;1.30;;
33716;SDS011;20046;50.746;7.072;2022-10-16T04:51:25;3.38;;;1.20;;
33716;SDS011;20046;50.746;7.072;2022-10-16T04:53:51;3.88;;;0.90;;
33716;SDS011;20046;50.746;7.072;2022-10-16T04:56:17;2.92;;;1.45;;
33716;SDS011;20046;50.746;7.072;2022-10-16T04:58:43;5.50;;;1.30;;
33716;SDS011;20046;50.746;7.072;2022-10-16T05:01:09;1.73;;;1.40;;
33716;SDS011;20046;50.746;7.072;2022-10-16T05:03:34;4.93;;;1.83;;
33716;SDS011;20046;50.746;7.072;2022-10-16T05:06:00;3.47;;;1.52;;
33716;SDS011;20046;50.746;7.072;2022-10-16T05:08:25;2.22;;;1.70;;
33716;SDS011;20046;50.746;7.072;2022-10-16T05:10:51;3.42;;;1.40;;
33716;SDS011;20046;50.746;7.072;2022-10-16T05:13:16;4.72;;;1.33;;
33716;SDS011;20046;50.746;7.072;2022-10-16T05:15:46;2.78;;;1.70;;
33716;SDS011;20046;50.746;7.072;2022-10-16T05:18:13;6.53;;;2.03;;
33716;SDS011;20046;50.746;7.072;2022-10-16T05:20:39;3.58;;;1.77;;
33716;SDS011;20046;50.746;7.072;2022-10-16T05:23:04;2.92;;;1.73;;
33716;SDS011;20046;50.746;7.072;2022-10-16T05:25:30;1.67;;;1.58;;
33716;SDS011;20046;50.746;7.072;2022-10-16T05:27:55;6.47;;;1.63;;
33716;SDS011;20046;50.746;7.072;2022-10-16T05:30:21;5.20;;;1.30;;
33716;SDS011;20046;50.746;7.072;2022-10-16T05:32:47;4.15;;;2.30;;
33716;SDS011;20046;50.746;7.072;2022-10-16T05:35:14;3.05;;;2.00;;
33716;SDS011;20046;50.746;7.072;2022-10-16T05:37:39;2.13;;;1.55;;
33716;SDS011;20046;50.746;7.072;2022-10-16T05:40:05;3.15;;;1.50;;
33716;SDS011;20046;50.746;7.072;2022-10-16T05:42:31;5.57;;;1.88;;
33716;SDS011;20046;50.746;7.072;2022-10-16T05:44:57;3.40;;;1.60;;
33716;SDS011;20046;50.746;7.072;2022-10-16T05:47:22;5.18;;;1.50;;
33716;SDS011;20046;50.746;7.072;2022-10-16T05:49:48;1.55;;;1.30;;
33716;SDS011;20046;50.746;7.072;2022-10-16T05:52:14;4.22;;;1.60;;
33716;SDS011;20046;50.746;7.072;2022-10-16T05:54:39;5.07;;;1.73;;
33716;SDS011;20046;50.746;7.072;2022-10-16T05:57:05;7.30;;;1.95;;
33716;SDS011;20046;50.746;7.072;2022-10-16T05:59:31;4.45;;;1.75;;
33716;SDS011;20046;50.746;7.072;2022-10-16T06:01:56;2.22;;;1.50;;
33716;SDS011;20046;50.746;7.072;2022-10-16T06:04:22;3.45;;;1.90;;
33716;SDS011;20046;50.746;7.072;2022-10-16T06:06:48;4.15;;;1.98;;
33716;SDS011;20046;50.746;7.072;2022-10-16T06:09:13;4.28;;;1.75;;
33716;SDS011;20046;50.746;7.072;2022-10-16T06:11:39;3.50;;;1.58;;
33716;SDS011;20046;50.746;7.072;2022-10-16T06:14:05;3.47;;;1.95;;
33716;SDS011;20046;50.746;7.072;2022-10-16T06:16:37;4.70;;;1.88;;
33716;SDS011;20046;50.746;7.072;2022-10-16T06:19:03;4.65;;;2.13;;
33716;SDS011;20046;50.746;7.072;2022-10-16T06:21:31;4.32;;;2.20;;
33716;SDS011;20046;50.746;7.072;2022-10-16T06:23:56;5.90;;;2.10;;
33716;SDS011;20046;50.746;7.072;2022-10-16T06:26:24;7.82;;;2.40;;
33716;SDS011;20046;50.746;7.072;2022-10-16T06:28:53;6.47;;;2.40;;
33716;SDS011;20046;50.746;7.072;2022-10-16T06:31:20;3.90;;;2.15;;
33716;SDS011;20046;50.746;7.072;2022-10-16T06:33:45;7.43;;;2.05;;
33716;SDS011;20046;50.746;7.072;2022-10-16T06:36:16;14.68;;;3.45;;
33716;SDS011;20046;50.746;7.072;2022-10-16T06:38:43;6.93;;;2.20;;
33716;SDS011;20046;50.746;7.072;2022-10-16T06:41:09;9.15;;;2.70;;
33716;SDS011;20046;50.746;7.072;2022-10-16T06:43:37;10.13;;;2.85;;
33716;SDS011;20046;50.746;7.072;2022-10-16T06:46:03;6.45;;;2.17;;
33716;SDS011;20046;50.746;7.072;2022-10-16T06:48:32;4.10;;;2.03;;
33716;SDS011;20046;50.746;7.072;2022-10-16T06:50:59;8.82;;;2.40;;
33716;SDS011;20046;50.746;7.072;2022-10-16T06:53:32;5.90;;;2.40;;
33716;SDS011;20046;50.746;7.072;2022-10-16T06:56:08;5.90;;;2.40;;
33716;SDS011;20046;50.746;7.072;2022-10-16T06:58:45;9.10;;;2.70;;
33716;SDS011;20046;50.746;7.072;2022-10-16T07:01:11;7.32;;;2.10;;
33716;SDS011;20046;50.746;7.072;2022-10-16T07:03:39;4.15;;;2.42;;
33716;SDS011;20046;50.746;7.072;2022-10-16T07:06:06;2.53;;;2.22;;
33716;SDS011;20046;50.746;7.072;2022-10-16T07:08:33;10.88;;;3.13;;
33716;SDS011;20046;50.746;7.072;2022-10-16T07:11:04;4.60;;;2.40;;
33716;SDS011;20046;50.746;7.072;2022-10-16T07:13:37;18.67;;;6.18;;
33716;SDS011;20046;50.746;7.072;2022-10-16T07:16:05;10.52;;;3.65;;
33716;SDS011;20046;50.746;7.072;2022-10-16T07:18:38;13.32;;;4.70;;
33716;SDS011;20046;50.746;7.072;2022-10-16T07:23:51;8.75;;;3.28;;
33716;SDS011;20046;50.746;7.072;2022-10-16T07:26:21;6.18;;;3.03;;
33716;SDS011;20046;50.746;7.072;2022-10-16T07:28:47;8.40;;;3.10;;
33716;SDS011;20046;50.746;7.072;2022-10-16T07:31:14;7.78;;;3.40;;
33716;SDS011;20046;50.746;7.072;2022-10-16T07:33:42;11.05;;;3.45;;
33716;SDS011;20046;50.746;7.072;2022-10-16T07:36:09;8.50;;;3.20;;
33716;SDS011;20046;50.746;7.072;2022-10-16T07:38:36;9.30;;;3.55;;
33716;SDS011;20046;50.746;7.072;2022-10-16T07:41:04;4.78;;;2.42;;
33716;SDS011;20046;50.746;7.072;2022-10-16T07:43:31;9.07;;;3.75;;
33716;SDS011;20046;50.746;7.072;2022-10-16T07:45:57;5.35;;;2.80;;
33716;SDS011;20046;50.746;7.072;2022-10-16T07:48:23;5.10;;;2.85;;
33716;SDS011;20046;50.746;7.072;2022-10-16T07:50:51;12.10;;;3.15;;
33716;SDS011;20046;50.746;7.072;2022-10-16T07:53:17;8.05;;;3.70;;
33716;SDS011;20046;50.746;7.072;2022-10-16T07:55:42;9.70;;;3.75;;
33716;SDS011;20046;50.746;7.072;2022-10-16T07:58:08;17.02;;;4.82;;
33716;SDS011;20046;50.746;7.072;2022-10-16T08:00:34;13.18;;;3.45;;
33716;SDS011;20046;50.746;7.072;2022-10-16T08:03:01;5.78;;;2.60;;
33716;SDS011;20046;50.746;7.072;2022-10-16T08:05:28;9.70;;;2.47;;
33716;SDS011;20046;50.746;7.072;2022-10-16T08:07:54;6.95;;;2.53;;
33716;SDS011;20046;50.746;7.072;2022-10-16T08:10:21;2.35;;;2.15;;
33716;SDS011;20046;50.746;7.072;2022-10-16T08:12:48;3.97;;;2.22;;
33716;SDS011;20046;50.746;7.072;2022-10-16T08:15:14;15.13;;;3.53;;
33716;SDS011;20046;50.746;7.072;2022-10-16T08:17:39;10.68;;;3.05;;
33716;SDS011;20046;50.746;7.072;2022-10-16T08:20:05;8.90;;;2.30;;
33716;SDS011;20046;50.746;7.072;2022-10-16T08:22:31;5.20;;;2.42;;
33716;SDS011;20046;50.746;7.072;2022-10-16T08:24:56;9.90;;;3.38;;
33716;SDS011;20046;50.746;7.072;2022-10-16T08:27:22;6.32;;;2.40;;
33716;SDS011;20046;50.746;7.072;2022-10-16T08:29:50;7.43;;;2.70;;
33716;SDS011;20046;50.746;7.072;2022-10-16T08:32:16;7.03;;;2.10;;
33716;SDS011;20046;50.746;7.072;2022-10-16T08:34:41;4.43;;;2.00;;
33716;SDS011;20046;50.746;7.072;2022-10-16T08:37:07;5.13;;;2.20;;
33716;SDS011;20046;50.746;7.072;2022-10-16T08:39:36;4.03;;;1.88;;
33716;SDS011;20046;50.746;7.072;2022-10-16T08:42:12;1.90;;;1.42;;
33716;SDS011;20046;50.746;7.072;2022-10-16T08:47:50;4.75;;;1.90;;
33716;SDS011;20046;50.746;7.072;2022-10-16T08:50:25;3.70;;;1.80;;
33716;SDS011;20046;50.746;7.072;2022-10-16T08:52:53;1.90;;;1.30;;
33716;SDS011;20046;50.746;7.072;2022-10-16T08:58:13;3.30;;;1.05;;
33716;SDS011;20046;50.746;7.072;2022-10-16T09:00:40;2.20;;;1.10;;
33716;SDS011;20046;50.746;7.072;2022-10-16T09:05:54;1.60;;;1.05;;
33716;SDS011;20046;50.746;7.072;2022-10-16T09:17:28;5.32;;;1.02;;
33716;SDS011;20046;50.746;7.072;2022-10-16T09:20:17;3.70;;;1.10;;
33716;SDS011;20046;50.746;7.072;2022-10-16T09:22:47;1.60;;;0.90;;
33716;SDS011;20046;50.746;7.072;2022-10-16T09:25:17;1.75;;;0.80;;
33716;SDS011;20046;50.746;7.072;2022-10-16T09:27:47;1.00;;;0.90;;
33716;SDS011;20046;50.746;7.072;2022-10-16T09:30:14;2.30;;;0.60;;
33716;SDS011;20046;50.746;7.072;2022-10-16T09:32:43;8.13;;;1.13;;
33716;SDS011;20046;50.746;7.072;2022-10-16T09:35:16;1.85;;;0.50;;
33716;SDS011;20046;50.746;7.072;2022-10-16T09:37:50;2.58;;;0.90;;
33716;SDS011;20046;50.746;7.072;2022-10-16T09:40:28;3.28;;;0.88;;
33716;SDS011;20046;50.746;7.072;2022-10-16T09:46:02;2.85;;;1.08;;
33716;SDS011;20046;50.746;7.072;2022-10-16T09:48:31;0.77;;;0.43;;
33716;SDS011;20046;50.746;7.072;2022-10-16T09:51:03;1.20;;;0.60;;
33716;SDS011;20046;50.746;7.072;2022-10-16T09:53:38;1.77;;;0.63;;
33716;SDS011;20046;50.746;7.072;2022-10-16T09:56:06;2.42;;;0.60;;
33716;SDS011;20046;50.746;7.072;2022-10-16T09:58:32;2.75;;;0.57;;
33716;SDS011;20046;50.746;7.072;2022-10-16T10:00:58;0.88;;;0.60;;
33716;SDS011;20046;50.746;7.072;2022-10-16T10:03:45;2.67;;;0.70;;
33716;SDS011;20046;50.746;7.072;2022-10-16T10:06:18;5.72;;;0.80;;
33716;SDS011;20046;50.746;7.072;2022-10-16T10:19:36;2.28;;;0.50;;
33716;SDS011;20046;50.746;7.072;2022-10-16T10:22:27;1.33;;;0.70;;
33716;SDS011;20046;50.746;7.072;2022-10-16T10:25:00;2.25;;;1.05;;
33716;SDS011;20046;50.746;7.072;2022-10-16T10:30:41;2.15;;;0.60;;
33716;SDS011;20046;50.746;7.072;2022-10-16T10:36:12;1.58;;;0.60;;
33716;SDS011;20046;50.746;7.072;2022-10-16T10:38:47;2.63;;;0.68;;
33716;SDS011;20046;50.746;7.072;2022-10-16T10:50:12;1.65;;;0.50;;
33716;SDS011;20046;50.746;7.072;2022-10-16T10:52:51;0.88;;;0.35;;
33716;SDS011;20046;50.746;7.072;2022-10-16T10:58:52;2.03;;;0.50;;
33716;SDS011;20046;50.746;7.072;2022-10-16T11:01:11;1.52;;;0.50;;
33716;SDS011;20046;50.746;7.072;2022-10-16T11:06:48;2.42;;;0.70;;
33716;SDS011;20046;50.746;7.072;2022-10-16T11:09:20;1.48;;;0.77;;
33716;SDS011;20046;50.746;7.072;2022-10-16T11:11:56;1.90;;;0.80;;
33716;SDS011;20046;50.746;7.072;2022-10-16T11:14:38;2.78;;;0.60;;
33716;SDS011;20046;50.746;7.072;2022-10-16T11:17:26;2.40;;;0.60;;
33716;SDS011;20046;50.746;7.072;2022-10-16T11:19:58;2.67;;;0.50;;
33716;SDS011;20046;50.746;7.072;2022-10-16T11:22:36;1.25;;;0.60;;
33716;SDS011;20046;50.746;7.072;2022-10-16T11:25:12;4.68;;;1.17;;
33716;SDS011;20046;50.746;7.072;2022-10-16T11:30:22;0.90;;;0.70;;
33716;SDS011;20046;50.746;7.072;2022-10-16T11:35:24;6.13;;;1.05;;
33716;SDS011;20046;50.746;7.072;2022-10-16T11:38:25;3.67;;;0.77;;
33716;SDS011;20046;50.746;7.072;2022-10-16T11:41:21;0.80;;;0.75;;
33716;SDS011;20046;50.746;7.072;2022-10-16T11:44:23;1.60;;;0.75;;
33716;SDS011;20046;50.746;7.072;2022-10-16T11:49:30;2.20;;;0.52;;
33716;SDS011;20046;50.746;7.072;2022-10-16T11:52:03;1.40;;;0.60;;
33716;SDS011;20046;50.746;7.072;2022-10-16T11:54:46;2.35;;;0.60;;
33716;SDS011;20046;50.746;7.072;2022-10-16T11:57:27;2.50;;;0.63;;
33716;SDS011;20046;50.746;7.072;2022-10-16T12:02:50;1.05;;;0.50;;
33716;SDS011;20046;50.746;7.072;2022-10-16T12:05:28;1.00;;;0.40;;
33716;SDS011;20046;50.746;7.072;2022-10-16T12:08:13;1.65;;;0.47;;
33716;SDS011;20046;50.746;7.072;2022-10-16T12:10:41;3.03;;;0.70;;
33716;SDS011;20046;50.746;7.072;2022-10-16T12:13:28;1.38;;;0.63;;
33716;SDS011;20046;50.746;7.072;2022-10-16T12:16:07;5.10;;;0.43;;
33716;SDS011;20046;50.746;7.072;2022-10-16T12:18:45;1.33;;;0.75;;
33716;SDS011;20046;50.746;7.072;2022-10-16T12:21:13;1.20;;;0.50;;
33716;SDS011;20046;50.746;7.072;2022-10-16T12:23:48;1.63;;;0.63;;
33716;SDS011;20046;50.746;7.072;2022-10-16T12:26:25;2.70;;;0.50;;
33716;SDS011;20046;50.746;7.072;2022-10-16T12:28:53;2.47;;;0.50;;
33716;SDS011;20046;50.746;7.072;2022-10-16T12:31:19;1.98;;;0.73;;
33716;SDS011;20046;50.746;7.072;2022-10-16T12:34:01;1.48;;;0.60;;
33716;SDS011;20046;50.746;7.072;2022-10-16T12:36:29;2.38;;;0.50;;
33716;SDS011;20046;50.746;7.072;2022-10-16T12:38:59;1.33;;;0.70;;
33716;SDS011;20046;50.746;7.072;2022-10-16T12:43:55;2.40;;;0.70;;
33716;SDS011;20046;50.746;7.072;2022-10-16T12:46:23;1.08;;;0.50;;
33716;SDS011;20046;50.746;7.072;2022-10-16T12:48:49;0.60;;;0.60;;
33716;SDS011;20046;50.746;7.072;2022-10-16T13:10:14;1.73;;;0.70;;
33716;SDS011;20046;50.746;7.072;2022-10-16T13:15:24;1.60;;;0.50;;
33716;SDS011;20046;50.746;7.072;2022-10-16T13:18:13;1.20;;;0.70;;
33716;SDS011;20046;50.746;7.072;2022-10-16T13:23:55;0.45;;;0.40;;
33716;SDS011;20046;50.746;7.072;2022-10-16T13:26:41;2.97;;;0.75;;
33716;SDS011;20046;50.746;7.072;2022-10-16T13:29:30;1.67;;;0.50;;
33716;SDS011;20046;50.746;7.072;2022-10-16T13:31:58;1.10;;;0.40;;
33716;SDS011;20046;50.746;7.072;2022-10-16T13:34:32;1.38;;;0.50;;
33716;SDS011;20046;50.746;7.072;2022-10-16T13:36:57;4.35;;;0.70;;
33716;SDS011;20046;50.746;7.072;2022-10-16T13:39:27;2.63;;;0.57;;
33716;SDS011;20046;50.746;7.072;2022-10-16T13:42:04;0.93;;;0.50;;
33716;SDS011;20046;50.746;7.072;2022-10-16T13:44:44;3.88;;;1.75;;
33716;SDS011;20046;50.746;7.072;2022-10-16T13:47:19;3.00;;;1.05;;
33716;SDS011;20046;50.746;7.072;2022-10-16T13:49:47;3.08;;;0.52;;
33716;SDS011;20046;50.746;7.072;2022-10-16T13:52:40;1.23;;;0.50;;
33716;SDS011;20046;50.746;7.072;2022-10-16T13:55:13;0.40;;;0.40;;
33716;SDS011;20046;50.746;7.072;2022-10-16T13:57:40;0.98;;;0.50;;
33716;SDS011;20046;50.746;7.072;2022-10-16T14:03:07;1.17;;;0.35;;
33716;SDS011;20046;50.746;7.072;2022-10-16T14:06:21;3.40;;;0.70;;
33716;SDS011;20046;50.746;7.072;2022-10-16T14:08:29;1.40;;;0.40;;
33716;SDS011;20046;50.746;7.072;2022-10-16T14:10:59;0.68;;;0.50;;
33716;SDS011;20046;50.746;7.072;2022-10-16T14:13:47;1.15;;;0.50;;
33716;SDS011;20046;50.746;7.072;2022-10-16T14:19:21;1.52;;;0.50;;
33716;SDS011;20046;50.746;7.072;2022-10-16T14:21:50;0.50;;;0.50;;
33716;SDS011;20046;50.746;7.072;2022-10-16T14:24:23;1.63;;;0.70;;
33716;SDS011;20046;50.746;7.072;2022-10-16T14:27:00;2.30;;;0.45;;
33716;SDS011;20046;50.746;7.072;2022-10-16T14:29:27;0.98;;;0.50;;
33716;SDS011;20046;50.746;7.072;2022-10-16T14:31:57;0.40;;;0.40;;
33716;SDS011;20046;50.746;7.072;2022-10-16T14:34:29;1.17;;;0.50;;
33716;SDS011;20046;50.746;7.072;2022-10-16T14:36:58;1.70;;;0.75;;
33716;SDS011;20046;50.746;7.072;2022-10-16T14:39:29;4.43;;;0.50;;
33716;SDS011;20046;50.746;7.072;2022-10-16T14:41:56;0.40;;;0.38;;
33716;SDS011;20046;50.746;7.072;2022-10-16T14:44:25;0.77;;;0.50;;
33716;SDS011;20046;50.746;7.072;2022-10-16T14:46:53;2.97;;;0.50;;
33716;SDS011;20046;50.746;7.072;2022-10-16T14:49:19;2.83;;;0.52;;
33716;SDS011;20046;50.746;7.072;2022-10-16T14:51:46;1.75;;;0.88;;
33716;SDS011;20046;50.746;7.072;2022-10-16T14:54:13;1.02;;;0.50;;
33716;SDS011;20046;50.746;7.072;2022-10-16T14:56:50;1.73;;;0.40;;
33716;SDS011;20046;50.746;7.072;2022-10-16T14:59:28;3.33;;;0.60;;
33716;SDS011;20046;50.746;7.072;2022-10-16T15:02:08;2.70;;;0.70;;
33716;SDS011;20046;50.746;7.072;2022-10-16T15:04:53;0.98;;;0.60;;
33716;SDS011;20046;50.746;7.072;2022-10-16T15:07:20;3.03;;;0.77;;
33716;SDS011;20046;50.746;7.072;2022-10-16T15:09:45;1.60;;;0.90;;
33716;SDS011;20046;50.746;7.072;2022-10-16T15:12:11;2.78;;;0.82;;
33716;SDS011;20046;50.746;7.072;2022-10-16T15:14:37;3.08;;;0.80;;
33716;SDS011;20046;50.746;7.072;2022-10-16T15:17:02;1.80;;;0.80;;
33716;SDS011;20046;50.746;7.072;2022-10-16T15:19:29;2.38;;;1.00;;
33716;SDS011;20046;50.746;7.072;2022-10-16T15:21:55;0.93;;;0.90;;
33716;SDS011;20046;50.746;7.072;2022-10-16T15:24:21;2.60;;;0.70;;
33716;SDS011;20046;50.746;7.072;2022-10-16T15:26:46;2.45;;;0.80;;
33716;SDS011;20046;50.746;7.072;2022-10-16T15:29:12;0.80;;;0.60;;
33716;SDS011;20046;50.746;7.072;2022-10-16T15:31:38;1.95;;;0.90;;
33716;SDS011;20046;50.746;7.072;2022-10-16T15:34:08;2.58;;;0.77;;
33716;SDS011;20046;50.746;7.072;2022-10-16T15:36:34;0.80;;;0.65;;
33716;SDS011;20046;50.746;7.072;2022-10-16T15:39:02;3.05;;;1.40;;
33716;SDS011;20046;50.746;7.072;2022-10-16T15:41:29;1.33;;;0.82;;
33716;SDS011;20046;50.746;7.072;2022-10-16T15:43:55;1.95;;;1.25;;
33716;SDS011;20046;50.746;7.072;2022-10-16T15:46:21;3.13;;;1.20;;
33716;SDS011;20046;50.746;7.072;2022-10-16T15:48:48;4.15;;;1.02;;
33716;SDS011;20046;50.746;7.072;2022-10-16T15:51:15;2.28;;;1.40;;
33716;SDS011;20046;50.746;7.072;2022-10-16T15:53:42;2.30;;;1.05;;
33716;SDS011;20046;50.746;7.072;2022-10-16T15:56:08;2.83;;;1.23;;
33716;SDS011;20046;50.746;7.072;2022-10-16T15:58:36;5.55;;;1.50;;
33716;SDS011;20046;50.746;7.072;2022-10-16T16:01:02;2.72;;;0.98;;
33716;SDS011;20046;50.746;7.072;2022-10-16T16:03:29;1.75;;;1.17;;
33716;SDS011;20046;50.746;7.072;2022-10-16T16:05:55;2.00;;;0.90;;
33716;SDS011;20046;50.746;7.072;2022-10-16T16:08:21;2.50;;;1.10;;
33716;SDS011;20046;50.746;7.072;2022-10-16T16:10:57;3.63;;;1.05;;
33716;SDS011;20046;50.746;7.072;2022-10-16T16:13:30;2.90;;;1.00;;
33716;SDS011;20046;50.746;7.072;2022-10-16T16:15:56;7.95;;;2.85;;
33716;SDS011;20046;50.746;7.072;2022-10-16T16:18:22;4.38;;;1.70;;
33716;SDS011;20046;50.746;7.072;2022-10-16T16:20:49;5.38;;;1.40;;
33716;SDS011;20046;50.746;7.072;2022-10-16T16:23:15;4.78;;;1.38;;
33716;SDS011;20046;50.746;7.072;2022-10-16T16:25:41;2.33;;;1.42;;
33716;SDS011;20046;50.746;7.072;2022-10-16T16:28:07;4.13;;;1.50;;
33716;SDS011;20046;50.746;7.072;2022-10-16T16:30:35;4.57;;;2.17;;
33716;SDS011;20046;50.746;7.072;2022-10-16T16:33:01;7.60;;;1.63;;
33716;SDS011;20046;50.746;7.072;2022-10-16T16:35:26;3.33;;;1.67;;
33716;SDS011;20046;50.746;7.072;2022-10-16T16:37:52;2.60;;;1.30;;
33716;SDS011;20046;50.746;7.072;2022-10-16T16:40:17;1.98;;;1.45;;
33716;SDS011;20046;50.746;7.072;2022-10-16T16:42:43;4.13;;;1.58;;
33716;SDS011;20046;50.746;7.072;2022-10-16T16:45:09;5.40;;;1.60;;
33716;SDS011;20046;50.746;7.072;2022-10-16T16:47:34;6.13;;;2.08;;
33716;SDS011;20046;50.746;7.072;2022-10-16T16:50:00;5.15;;;2.00;;
33716;SDS011;20046;50.746;7.072;2022-10-16T16:52:29;7.93;;;3.40;;
33716;SDS011;20046;50.746;7.072;2022-10-16T16:54:55;7.88;;;3.67;;
33716;SDS011;20046;50.746;7.072;2022-10-16T16:57:20;6.28;;;3.50;;
33716;SDS011;20046;50.746;7.072;2022-10-16T16:59:46;6.15;;;3.80;;